Bw Arctic — 3EDI6 — position and weather

sailwx.info

Track history (hours):
 
Tides and Currents Weather Stations Pressure Air Temp Water Temp Dewpoint Dewpoint Depression Visibility Wind Speed Wind Dir Waves Ship Positions

Bw Arctic

Last reported at 2017-Jun-08 23:21 UTC. Time now 2017-Jun-24 00:14 UTC.
Position N 01°54' E 102°23'.
Warning: this ship's position is 15 days out of date.

Length 292 m; beam 48 m; draft 17.2 m.

Type: Cargo ship. MMSI: 371579000.

Date/timePositionNaut miles runAvg speedWind from/ knotsBaromVisibWave heightAir tempDewpointWater temp
2017-Jun-08 23:21N 01°54' E 102°23'510.9
2017-Jun-08 22:52N 01°51' E 102°27'6812.4
2017-Jun-08 17:21N 01°15' E 103°25'411.6
2017-Jun-08 16:58N 01°14' E 103°29'511.0
2017-Jun-08 16:30N 01°12' E 103°34'510.5
2017-Jun-08 16:00N 01°11' E 103°39'510.4
2017-Jun-08 15:30N 01°08' E 103°44'510.6
2017-Jun-08 15:01N 01°11' E 103°48'611.7
2017-Jun-08 14:31N 01°13' E 103°54'  
Track history (hours):
 
Tides and Currents Weather Stations Pressure Air Temp Water Temp Dewpoint Dewpoint Depression Visibility Wind Speed Wind Dir Waves Ship Positions

Bw Arctic

Last reported at 2017-Jun-08 23:21 UTC. Time now 2017-Jun-24 00:14 UTC.
Position N 01°54' E 102°23'.
Warning: this ship's position is 15 days out of date.

Length 292 m; beam 48 m; draft 17.2 m.

Type: Cargo ship. MMSI: 371579000.

Date/timePositionNaut miles runAvg speedWind from/ knotsBaromVisibWave heightAir tempDewpointWater temp
2017-Jun-08 23:21N 01°54' E 102°23'510.9
2017-Jun-08 22:52N 01°51' E 102°27'6812.4
2017-Jun-08 17:21N 01°15' E 103°25'411.6
2017-Jun-08 16:58N 01°14' E 103°29'511.0
2017-Jun-08 16:30N 01°12' E 103°34'510.5
2017-Jun-08 16:00N 01°11' E 103°39'510.4
2017-Jun-08 15:30N 01°08' E 103°44'510.6
2017-Jun-08 15:01N 01°11' E 103°48'611.7
2017-Jun-08 14:31N 01°13' E 103°54'  

Dump ship's entire track history